sensor_id;sensor_type;location;lat;lon;timestamp;temperature;humidity
22680;DHT22;11507;44.858;10.374;2022-12-07T00:01:41;6.10;99.90
22680;DHT22;11507;44.858;10.374;2022-12-07T00:04:10;6.10;99.90
22680;DHT22;11507;44.858;10.374;2022-12-07T00:06:39;6.10;99.90
22680;DHT22;11507;44.858;10.374;2022-12-07T00:09:07;6.10;99.90
22680;DHT22;11507;44.858;10.374;2022-12-07T00:11:34;6.10;99.90
22680;DHT22;11507;44.858;10.374;2022-12-07T00:14:02;6.00;99.90
22680;DHT22;11507;44.858;10.374;2022-12-07T00:16:31;6.10;99.90
22680;DHT22;11507;44.858;10.374;2022-12-07T00:19:02;6.10;99.90
22680;DHT22;11507;44.858;10.374;2022-12-07T00:21:31;6.00;99.90
22680;DHT22;11507;44.858;10.374;2022-12-07T00:23:58;6.00;99.90
22680;DHT22;11507;44.858;10.374;2022-12-07T00:26:29;5.90;99.90
22680;DHT22;11507;44.858;10.374;2022-12-07T00:29:02;5.90;99.90
22680;DHT22;11507;44.858;10.374;2022-12-07T00:31:31;5.90;99.90
22680;DHT22;11507;44.858;10.374;2022-12-07T00:33:59;5.90;99.90
22680;DHT22;11507;44.858;10.374;2022-12-07T00:36:27;5.80;99.90
22680;DHT22;11507;44.858;10.374;2022-12-07T00:38:54;5.80;99.90
22680;DHT22;11507;44.858;10.374;2022-12-07T00:41:22;5.80;99.90
22680;DHT22;11507;44.858;10.374;2022-12-07T00:43:49;5.80;99.90
22680;DHT22;11507;44.858;10.374;2022-12-07T00:46:16;5.80;99.90
22680;DHT22;11507;44.858;10.374;2022-12-07T00:48:42;5.80;99.90
22680;DHT22;11507;44.858;10.374;2022-12-07T00:51:09;5.80;99.90
22680;DHT22;11507;44.858;10.374;2022-12-07T00:53:36;5.80;99.90
22680;DHT22;11507;44.858;10.374;2022-12-07T00:56:27;5.80;99.90
22680;DHT22;11507;44.858;10.374;2022-12-07T01:01:23;5.80;99.90
22680;DHT22;11507;44.858;10.374;2022-12-07T01:03:49;5.70;99.90
22680;DHT22;11507;44.858;10.374;2022-12-07T01:06:16;5.70;99.90
22680;DHT22;11507;44.858;10.374;2022-12-07T01:08:44;5.70;99.90
22680;DHT22;11507;44.858;10.374;2022-12-07T01:11:13;5.70;99.90
22680;DHT22;11507;44.858;10.374;2022-12-07T01:13:40;5.70;99.90
22680;DHT22;11507;44.858;10.374;2022-12-07T01:16:07;5.70;99.90
22680;DHT22;11507;44.858;10.374;2022-12-07T01:18:35;5.70;99.90
22680;DHT22;11507;44.858;10.374;2022-12-07T01:21:05;5.70;99.90
22680;DHT22;11507;44.858;10.374;2022-12-07T01:23:35;5.70;99.90
22680;DHT22;11507;44.858;10.374;2022-12-07T01:26:05;5.70;99.90
22680;DHT22;11507;44.858;10.374;2022-12-07T01:28:31;5.70;99.90
22680;DHT22;11507;44.858;10.374;2022-12-07T01:31:02;5.70;99.90
22680;DHT22;11507;44.858;10.374;2022-12-07T01:33:34;5.70;99.90
22680;DHT22;11507;44.858;10.374;2022-12-07T01:36:13;5.70;99.90
22680;DHT22;11507;44.858;10.374;2022-12-07T01:38:40;5.70;99.90
22680;DHT22;11507;44.858;10.374;2022-12-07T01:41:06;5.70;99.90
22680;DHT22;11507;44.858;10.374;2022-12-07T01:43:33;5.80;99.90
22680;DHT22;11507;44.858;10.374;2022-12-07T01:46:01;5.70;99.90
22680;DHT22;11507;44.858;10.374;2022-12-07T01:48:34;5.80;99.90
22680;DHT22;11507;44.858;10.374;2022-12-07T01:51:06;5.80;99.90
22680;DHT22;11507;44.858;10.374;2022-12-07T01:53:36;5.80;99.90
22680;DHT22;11507;44.858;10.374;2022-12-07T01:56:06;5.80;99.90
22680;DHT22;11507;44.858;10.374;2022-12-07T01:58:34;5.80;99.90
22680;DHT22;11507;44.858;10.374;2022-12-07T02:01:00;5.80;99.90
22680;DHT22;11507;44.858;10.374;2022-12-07T02:03:39;5.70;99.90
22680;DHT22;11507;44.858;10.374;2022-12-07T02:06:06;5.80;99.90
22680;DHT22;11507;44.858;10.374;2022-12-07T02:08:33;5.80;99.90
22680;DHT22;11507;44.858;10.374;2022-12-07T02:11:02;5.80;99.90
22680;DHT22;11507;44.858;10.374;2022-12-07T02:13:31;5.70;99.90
22680;DHT22;11507;44.858;10.374;2022-12-07T02:18:58;5.80;99.90
22680;DHT22;11507;44.858;10.374;2022-12-07T02:27:07;5.80;99.90
22680;DHT22;11507;44.858;10.374;2022-12-07T02:29:43;5.80;99.90
22680;DHT22;11507;44.858;10.374;2022-12-07T02:32:20;5.80;99.90
22680;DHT22;11507;44.858;10.374;2022-12-07T02:37:26;5.70;99.90
22680;DHT22;11507;44.858;10.374;2022-12-07T02:39:59;5.70;99.90
22680;DHT22;11507;44.858;10.374;2022-12-07T02:42:34;5.60;99.90
22680;DHT22;11507;44.858;10.374;2022-12-07T02:45:03;5.60;99.90
22680;DHT22;11507;44.858;10.374;2022-12-07T02:47:32;5.70;99.90
22680;DHT22;11507;44.858;10.374;2022-12-07T02:49:59;5.60;99.90
22680;DHT22;11507;44.858;10.374;2022-12-07T02:52:24;5.60;99.90
22680;DHT22;11507;44.858;10.374;2022-12-07T02:54:50;5.60;99.90
22680;DHT22;11507;44.858;10.374;2022-12-07T02:57:26;5.50;99.90
22680;DHT22;11507;44.858;10.374;2022-12-07T03:05:28;5.60;99.90
22680;DHT22;11507;44.858;10.374;2022-12-07T03:16:09;5.30;99.90
22680;DHT22;11507;44.858;10.374;2022-12-07T03:18:55;5.30;99.90
22680;DHT22;11507;44.858;10.374;2022-12-07T03:21:31;5.30;99.90
22680;DHT22;11507;44.858;10.374;2022-12-07T03:24:00;5.30;99.90
22680;DHT22;11507;44.858;10.374;2022-12-07T03:26:35;5.20;99.90
22680;DHT22;11507;44.858;10.374;2022-12-07T03:29:07;5.20;99.90
22680;DHT22;11507;44.858;10.374;2022-12-07T03:31:36;5.10;99.90
22680;DHT22;11507;44.858;10.374;2022-12-07T03:35:24;5.00;99.90
22680;DHT22;11507;44.858;10.374;2022-12-07T03:37:23;5.00;99.90
22680;DHT22;11507;44.858;10.374;2022-12-07T03:40:12;5.00;99.90
22680;DHT22;11507;44.858;10.374;2022-12-07T03:42:40;5.00;99.90
22680;DHT22;11507;44.858;10.374;2022-12-07T03:45:07;5.00;99.90
22680;DHT22;11507;44.858;10.374;2022-12-07T03:47:47;4.90;99.90
22680;DHT22;11507;44.858;10.374;2022-12-07T03:50:28;4.90;99.90
22680;DHT22;11507;44.858;10.374;2022-12-07T03:53:03;4.90;99.90
22680;DHT22;11507;44.858;10.374;2022-12-07T03:55:35;4.90;99.90
22680;DHT22;11507;44.858;10.374;2022-12-07T03:58:07;4.90;99.90
22680;DHT22;11507;44.858;10.374;2022-12-07T04:00:35;4.90;99.90
22680;DHT22;11507;44.858;10.374;2022-12-07T04:03:01;4.90;99.90
22680;DHT22;11507;44.858;10.374;2022-12-07T04:05:29;4.90;99.90
22680;DHT22;11507;44.858;10.374;2022-12-07T04:07:55;4.80;99.90
22680;DHT22;11507;44.858;10.374;2022-12-07T04:10:21;4.80;99.90
22680;DHT22;11507;44.858;10.374;2022-12-07T04:12:47;4.80;99.90
22680;DHT22;11507;44.858;10.374;2022-12-07T04:15:12;4.80;99.90
22680;DHT22;11507;44.858;10.374;2022-12-07T04:17:39;4.80;99.90
22680;DHT22;11507;44.858;10.374;2022-12-07T04:20:05;4.70;99.90
22680;DHT22;11507;44.858;10.374;2022-12-07T04:22:31;4.60;99.90
22680;DHT22;11507;44.858;10.374;2022-12-07T04:24:57;4.50;99.90
22680;DHT22;11507;44.858;10.374;2022-12-07T04:27:23;4.50;99.90
22680;DHT22;11507;44.858;10.374;2022-12-07T04:29:53;4.40;99.90
22680;DHT22;11507;44.858;10.374;2022-12-07T04:32:19;4.40;99.90
22680;DHT22;11507;44.858;10.374;2022-12-07T04:34:44;4.30;99.90
22680;DHT22;11507;44.858;10.374;2022-12-07T04:37:11;4.20;99.90
22680;DHT22;11507;44.858;10.374;2022-12-07T04:39:38;4.10;99.90
22680;DHT22;11507;44.858;10.374;2022-12-07T04:42:04;4.10;99.90
22680;DHT22;11507;44.858;10.374;2022-12-07T04:44:31;4.10;99.90
22680;DHT22;11507;44.858;10.374;2022-12-07T04:46:58;4.10;99.90
22680;DHT22;11507;44.858;10.374;2022-12-07T04:49:24;4.00;99.90
22680;DHT22;11507;44.858;10.374;2022-12-07T04:51:50;4.00;99.90
22680;DHT22;11507;44.858;10.374;2022-12-07T04:54:18;4.00;99.90
22680;DHT22;11507;44.858;10.374;2022-12-07T04:56:44;4.00;99.90
22680;DHT22;11507;44.858;10.374;2022-12-07T04:59:12;4.00;99.90
22680;DHT22;11507;44.858;10.374;2022-12-07T05:01:38;4.00;99.90
22680;DHT22;11507;44.858;10.374;2022-12-07T05:04:05;4.00;99.90
22680;DHT22;11507;44.858;10.374;2022-12-07T05:06:32;4.00;99.90
22680;DHT22;11507;44.858;10.374;2022-12-07T05:08:58;4.00;99.90
22680;DHT22;11507;44.858;10.374;2022-12-07T05:11:25;4.00;99.90
22680;DHT22;11507;44.858;10.374;2022-12-07T05:16:35;4.00;99.90
22680;DHT22;11507;44.858;10.374;2022-12-07T05:19:01;4.00;99.90
22680;DHT22;11507;44.858;10.374;2022-12-07T05:21:28;3.90;99.90
22680;DHT22;11507;44.858;10.374;2022-12-07T05:23:54;3.80;99.90
22680;DHT22;11507;44.858;10.374;2022-12-07T05:26:21;3.80;99.90
22680;DHT22;11507;44.858;10.374;2022-12-07T05:28:55;3.80;99.90
22680;DHT22;11507;44.858;10.374;2022-12-07T05:31:22;3.70;99.90
22680;DHT22;11507;44.858;10.374;2022-12-07T05:33:50;3.70;99.90
22680;DHT22;11507;44.858;10.374;2022-12-07T05:36:16;3.60;99.90
22680;DHT22;11507;44.858;10.374;2022-12-07T05:38:43;3.50;99.90
22680;DHT22;11507;44.858;10.374;2022-12-07T05:41:12;3.50;99.90
22680;DHT22;11507;44.858;10.374;2022-12-07T05:44:02;3.50;99.90
22680;DHT22;11507;44.858;10.374;2022-12-07T05:46:30;3.50;99.90
22680;DHT22;11507;44.858;10.374;2022-12-07T05:48:56;3.50;99.90
22680;DHT22;11507;44.858;10.374;2022-12-07T05:51:22;3.40;99.90
22680;DHT22;11507;44.858;10.374;2022-12-07T05:53:50;3.40;99.90
22680;DHT22;11507;44.858;10.374;2022-12-07T05:56:16;3.30;99.90
22680;DHT22;11507;44.858;10.374;2022-12-07T05:58:42;3.30;99.90
22680;DHT22;11507;44.858;10.374;2022-12-07T06:01:26;3.30;99.90
22680;DHT22;11507;44.858;10.374;2022-12-07T06:03:53;3.20;99.90
22680;DHT22;11507;44.858;10.374;2022-12-07T06:06:21;3.20;99.90
22680;DHT22;11507;44.858;10.374;2022-12-07T06:08:47;3.30;99.90
22680;DHT22;11507;44.858;10.374;2022-12-07T06:11:15;3.20;99.90
22680;DHT22;11507;44.858;10.374;2022-12-07T06:14:00;3.20;99.90
22680;DHT22;11507;44.858;10.374;2022-12-07T06:16:26;3.20;99.90
22680;DHT22;11507;44.858;10.374;2022-12-07T06:18:52;3.20;99.90
22680;DHT22;11507;44.858;10.374;2022-12-07T06:21:18;3.20;99.90
22680;DHT22;11507;44.858;10.374;2022-12-07T06:23:44;3.20;99.90
22680;DHT22;11507;44.858;10.374;2022-12-07T06:26:11;3.30;99.90
22680;DHT22;11507;44.858;10.374;2022-12-07T06:28:37;3.20;99.90
22680;DHT22;11507;44.858;10.374;2022-12-07T06:31:03;3.20;99.90
22680;DHT22;11507;44.858;10.374;2022-12-07T06:33:29;3.20;99.90
22680;DHT22;11507;44.858;10.374;2022-12-07T06:35:56;3.20;99.90
22680;DHT22;11507;44.858;10.374;2022-12-07T06:38:22;3.20;99.90
22680;DHT22;11507;44.858;10.374;2022-12-07T06:40:49;3.20;99.90
22680;DHT22;11507;44.858;10.374;2022-12-07T06:43:16;3.20;99.90
22680;DHT22;11507;44.858;10.374;2022-12-07T06:45:42;3.20;99.90
22680;DHT22;11507;44.858;10.374;2022-12-07T06:48:09;3.20;99.90
22680;DHT22;11507;44.858;10.374;2022-12-07T06:50:36;3.20;99.90
22680;DHT22;11507;44.858;10.374;2022-12-07T06:53:03;3.20;99.90
22680;DHT22;11507;44.858;10.374;2022-12-07T06:55:29;3.10;99.90
22680;DHT22;11507;44.858;10.374;2022-12-07T06:57:56;3.10;99.90
22680;DHT22;11507;44.858;10.374;2022-12-07T07:00:22;3.20;99.90
22680;DHT22;11507;44.858;10.374;2022-12-07T07:02:48;3.20;99.90
22680;DHT22;11507;44.858;10.374;2022-12-07T07:05:14;3.20;99.90
22680;DHT22;11507;44.858;10.374;2022-12-07T07:07:41;3.20;99.90
22680;DHT22;11507;44.858;10.374;2022-12-07T07:10:07;3.20;99.90
22680;DHT22;11507;44.858;10.374;2022-12-07T07:12:34;3.20;99.90
22680;DHT22;11507;44.858;10.374;2022-12-07T07:15:01;3.20;99.90
22680;DHT22;11507;44.858;10.374;2022-12-07T07:17:27;3.20;99.90
22680;DHT22;11507;44.858;10.374;2022-12-07T07:19:52;3.20;99.90
22680;DHT22;11507;44.858;10.374;2022-12-07T07:22:18;3.20;99.90
22680;DHT22;11507;44.858;10.374;2022-12-07T07:24:44;3.20;99.90
22680;DHT22;11507;44.858;10.374;2022-12-07T07:27:12;3.20;99.90
22680;DHT22;11507;44.858;10.374;2022-12-07T07:29:38;3.20;99.90
22680;DHT22;11507;44.858;10.374;2022-12-07T07:32:05;3.20;99.90
22680;DHT22;11507;44.858;10.374;2022-12-07T07:34:35;3.30;99.90
22680;DHT22;11507;44.858;10.374;2022-12-07T07:37:01;3.40;99.90
22680;DHT22;11507;44.858;10.374;2022-12-07T07:39:27;3.40;99.90
22680;DHT22;11507;44.858;10.374;2022-12-07T07:41:54;3.50;99.90
22680;DHT22;11507;44.858;10.374;2022-12-07T07:44:25;3.50;99.90
22680;DHT22;11507;44.858;10.374;2022-12-07T07:46:51;3.50;99.90
22680;DHT22;11507;44.858;10.374;2022-12-07T07:49:17;3.60;99.90
22680;DHT22;11507;44.858;10.374;2022-12-07T07:51:43;3.60;99.90
22680;DHT22;11507;44.858;10.374;2022-12-07T07:54:09;3.70;99.90
22680;DHT22;11507;44.858;10.374;2022-12-07T07:56:35;3.70;99.90
22680;DHT22;11507;44.858;10.374;2022-12-07T07:59:03;3.80;99.90
22680;DHT22;11507;44.858;10.374;2022-12-07T08:01:29;3.90;99.90
22680;DHT22;11507;44.858;10.374;2022-12-07T08:03:54;3.80;99.90
22680;DHT22;11507;44.858;10.374;2022-12-07T08:06:21;3.90;99.90
22680;DHT22;11507;44.858;10.374;2022-12-07T08:08:47;3.80;99.90
22680;DHT22;11507;44.858;10.374;2022-12-07T08:11:16;3.80;99.90
22680;DHT22;11507;44.858;10.374;2022-12-07T08:13:47;3.90;99.90
22680;DHT22;11507;44.858;10.374;2022-12-07T08:16:13;3.90;99.90
22680;DHT22;11507;44.858;10.374;2022-12-07T08:18:42;4.00;99.90
22680;DHT22;11507;44.858;10.374;2022-12-07T08:21:11;4.00;99.90
22680;DHT22;11507;44.858;10.374;2022-12-07T08:23:39;4.00;99.90
22680;DHT22;11507;44.858;10.374;2022-12-07T08:26:11;4.00;99.90
22680;DHT22;11507;44.858;10.374;2022-12-07T08:28:37;4.10;99.90
22680;DHT22;11507;44.858;10.374;2022-12-07T08:31:04;4.10;99.90
22680;DHT22;11507;44.858;10.374;2022-12-07T08:33:32;4.10;99.90
22680;DHT22;11507;44.858;10.374;2022-12-07T08:36:04;4.10;99.90
22680;DHT22;11507;44.858;10.374;2022-12-07T08:38:31;4.10;99.90
22680;DHT22;11507;44.858;10.374;2022-12-07T08:40:57;4.10;99.90
22680;DHT22;11507;44.858;10.374;2022-12-07T08:43:25;4.10;99.90
22680;DHT22;11507;44.858;10.374;2022-12-07T08:49:13;4.20;99.90
22680;DHT22;11507;44.858;10.374;2022-12-07T08:51:42;4.20;99.90
22680;DHT22;11507;44.858;10.374;2022-12-07T08:54:11;4.20;99.90
22680;DHT22;11507;44.858;10.374;2022-12-07T08:56:38;4.30;99.90
22680;DHT22;11507;44.858;10.374;2022-12-07T08:59:05;4.30;99.90
22680;DHT22;11507;44.858;10.374;2022-12-07T09:01:32;4.30;99.90
22680;DHT22;11507;44.858;10.374;2022-12-07T09:04:01;4.30;99.90
22680;DHT22;11507;44.858;10.374;2022-12-07T09:06:29;4.40;99.90
22680;DHT22;11507;44.858;10.374;2022-12-07T09:08:58;4.40;99.90
22680;DHT22;11507;44.858;10.374;2022-12-07T09:11:30;4.40;99.90
22680;DHT22;11507;44.858;10.374;2022-12-07T09:13:57;4.50;99.90
22680;DHT22;11507;44.858;10.374;2022-12-07T09:16:22;4.60;99.90
22680;DHT22;11507;44.858;10.374;2022-12-07T09:18:49;4.60;99.90
22680;DHT22;11507;44.858;10.374;2022-12-07T09:21:17;4.70;99.90
22680;DHT22;11507;44.858;10.374;2022-12-07T09:23:43;4.70;99.90
22680;DHT22;11507;44.858;10.374;2022-12-07T09:26:11;4.60;99.90
22680;DHT22;11507;44.858;10.374;2022-12-07T09:28:37;4.60;99.90
22680;DHT22;11507;44.858;10.374;2022-12-07T09:31:05;4.60;99.90
22680;DHT22;11507;44.858;10.374;2022-12-07T09:33:33;4.60;99.90
22680;DHT22;11507;44.858;10.374;2022-12-07T09:36:03;4.60;99.90
22680;DHT22;11507;44.858;10.374;2022-12-07T09:38:29;4.60;99.90
22680;DHT22;11507;44.858;10.374;2022-12-07T09:41:07;4.60;99.90
22680;DHT22;11507;44.858;10.374;2022-12-07T09:43:35;4.60;99.90
22680;DHT22;11507;44.858;10.374;2022-12-07T09:46:03;4.60;99.90
22680;DHT22;11507;44.858;10.374;2022-12-07T09:48:33;4.70;99.90
22680;DHT22;11507;44.858;10.374;2022-12-07T09:51:01;4.80;99.90
22680;DHT22;11507;44.858;10.374;2022-12-07T09:53:37;4.80;99.90
22680;DHT22;11507;44.858;10.374;2022-12-07T09:56:04;4.80;99.90
22680;DHT22;11507;44.858;10.374;2022-12-07T09:58:33;4.90;99.90
22680;DHT22;11507;44.858;10.374;2022-12-07T10:03:27;4.80;99.90
22680;DHT22;11507;44.858;10.374;2022-12-07T10:05:54;4.90;99.90
22680;DHT22;11507;44.858;10.374;2022-12-07T10:08:22;4.90;99.90
22680;DHT22;11507;44.858;10.374;2022-12-07T10:10:50;5.00;99.90
22680;DHT22;11507;44.858;10.374;2022-12-07T10:13:22;5.00;99.90
22680;DHT22;11507;44.858;10.374;2022-12-07T10:15:56;5.00;99.90
22680;DHT22;11507;44.858;10.374;2022-12-07T10:18:40;5.20;99.90
22680;DHT22;11507;44.858;10.374;2022-12-07T10:21:15;5.30;99.90
22680;DHT22;11507;44.858;10.374;2022-12-07T10:24:01;5.40;99.90
22680;DHT22;11507;44.858;10.374;2022-12-07T10:26:33;5.40;99.90
22680;DHT22;11507;44.858;10.374;2022-12-07T10:29:23;5.50;99.90
22680;DHT22;11507;44.858;10.374;2022-12-07T10:32:00;5.60;99.90
22680;DHT22;11507;44.858;10.374;2022-12-07T10:39:47;5.50;99.90
22680;DHT22;11507;44.858;10.374;2022-12-07T10:42:25;5.50;99.90
22680;DHT22;11507;44.858;10.374;2022-12-07T10:47:36;5.50;99.90
22680;DHT22;11507;44.858;10.374;2022-12-07T10:53:12;5.40;99.90
22680;DHT22;11507;44.858;10.374;2022-12-07T11:01:33;5.30;99.90
22680;DHT22;11507;44.858;10.374;2022-12-07T11:06:44;5.40;99.90
22680;DHT22;11507;44.858;10.374;2022-12-07T11:12:03;5.30;99.90
22680;DHT22;11507;44.858;10.374;2022-12-07T11:15:04;5.20;99.90
22680;DHT22;11507;44.858;10.374;2022-12-07T11:26:13;5.30;99.90
22680;DHT22;11507;44.858;10.374;2022-12-07T11:37:33;5.20;99.90
22680;DHT22;11507;44.858;10.374;2022-12-07T11:45:34;5.20;99.90
22680;DHT22;11507;44.858;10.374;2022-12-07T11:48:03;5.30;99.90
22680;DHT22;11507;44.858;10.374;2022-12-07T11:51:02;5.30;99.90
22680;DHT22;11507;44.858;10.374;2022-12-07T11:56:17;5.40;99.90
22680;DHT22;11507;44.858;10.374;2022-12-07T11:59:01;5.40;99.90
22680;DHT22;11507;44.858;10.374;2022-12-07T12:04:17;5.20;99.90
22680;DHT22;11507;44.858;10.374;2022-12-07T12:06:46;5.20;99.90
22680;DHT22;11507;44.858;10.374;2022-12-07T12:09:31;5.20;99.90
22680;DHT22;11507;44.858;10.374;2022-12-07T12:14:48;5.20;99.90
22680;DHT22;11507;44.858;10.374;2022-12-07T12:23:15;5.40;99.90
22680;DHT22;11507;44.858;10.374;2022-12-07T12:25:46;5.40;99.90
22680;DHT22;11507;44.858;10.374;2022-12-07T12:31:06;5.50;99.90
22680;DHT22;11507;44.858;10.374;2022-12-07T12:33:33;5.50;99.90
22680;DHT22;11507;44.858;10.374;2022-12-07T12:41:53;5.50;99.90
22680;DHT22;11507;44.858;10.374;2022-12-07T12:54:23;5.70;99.90
22680;DHT22;11507;44.858;10.374;2022-12-07T12:57:15;5.80;99.90
22680;DHT22;11507;44.858;10.374;2022-12-07T13:13:43;5.60;99.90
22680;DHT22;11507;44.858;10.374;2022-12-07T13:15:53;5.60;99.90
22680;DHT22;11507;44.858;10.374;2022-12-07T13:23:59;5.60;99.90
22680;DHT22;11507;44.858;10.374;2022-12-07T13:26:41;5.60;99.90
22680;DHT22;11507;44.858;10.374;2022-12-07T13:29:14;5.70;99.90
22680;DHT22;11507;44.858;10.374;2022-12-07T13:31:45;5.70;99.90
22680;DHT22;11507;44.858;10.374;2022-12-07T13:34:34;5.70;99.90
22680;DHT22;11507;44.858;10.374;2022-12-07T13:42:30;5.50;99.90
22680;DHT22;11507;44.858;10.374;2022-12-07T13:44:58;5.40;99.90
22680;DHT22;11507;44.858;10.374;2022-12-07T13:47:56;5.40;99.90
22680;DHT22;11507;44.858;10.374;2022-12-07T13:50:27;5.40;99.90
22680;DHT22;11507;44.858;10.374;2022-12-07T13:52:59;5.40;99.90
22680;DHT22;11507;44.858;10.374;2022-12-07T13:55:25;5.40;99.90
22680;DHT22;11507;44.858;10.374;2022-12-07T13:57:53;5.40;99.90
22680;DHT22;11507;44.858;10.374;2022-12-07T14:00:22;5.30;99.90
22680;DHT22;11507;44.858;10.374;2022-12-07T14:05:31;5.30;99.90
22680;DHT22;11507;44.858;10.374;2022-12-07T14:10:40;5.40;99.90
22680;DHT22;11507;44.858;10.374;2022-12-07T14:13:37;5.30;99.90
22680;DHT22;11507;44.858;10.374;2022-12-07T14:16:27;5.30;99.90
22680;DHT22;11507;44.858;10.374;2022-12-07T14:18:57;5.30;99.90
22680;DHT22;11507;44.858;10.374;2022-12-07T14:21:26;5.20;99.90
22680;DHT22;11507;44.858;10.374;2022-12-07T14:26:33;5.20;99.90
22680;DHT22;11507;44.858;10.374;2022-12-07T14:31:43;5.10;99.90
22680;DHT22;11507;44.858;10.374;2022-12-07T14:34:12;5.10;99.90
22680;DHT22;11507;44.858;10.374;2022-12-07T14:36:38;5.10;99.90
22680;DHT22;11507;44.858;10.374;2022-12-07T14:39:06;5.10;99.90
22680;DHT22;11507;44.858;10.374;2022-12-07T14:41:32;5.00;99.90
22680;DHT22;11507;44.858;10.374;2022-12-07T14:44:23;4.90;99.90
22680;DHT22;11507;44.858;10.374;2022-12-07T14:46:51;5.00;99.90
22680;DHT22;11507;44.858;10.374;2022-12-07T14:49:17;4.90;99.90
22680;DHT22;11507;44.858;10.374;2022-12-07T14:51:45;4.90;99.90
22680;DHT22;11507;44.858;10.374;2022-12-07T14:54:16;4.90;99.90
22680;DHT22;11507;44.858;10.374;2022-12-07T14:56:43;4.80;99.90
22680;DHT22;11507;44.858;10.374;2022-12-07T14:59:10;4.70;99.90
22680;DHT22;11507;44.858;10.374;2022-12-07T15:01:37;4.70;99.90
22680;DHT22;11507;44.858;10.374;2022-12-07T15:04:03;4.70;99.90
22680;DHT22;11507;44.858;10.374;2022-12-07T15:06:29;4.70;99.90
22680;DHT22;11507;44.858;10.374;2022-12-07T15:08:54;4.70;99.90
22680;DHT22;11507;44.858;10.374;2022-12-07T15:11:20;4.80;99.90
22680;DHT22;11507;44.858;10.374;2022-12-07T15:13:46;4.80;99.90
22680;DHT22;11507;44.858;10.374;2022-12-07T15:16:31;4.80;99.90
22680;DHT22;11507;44.858;10.374;2022-12-07T15:18:57;4.80;99.90
22680;DHT22;11507;44.858;10.374;2022-12-07T15:21:24;4.80;99.90
22680;DHT22;11507;44.858;10.374;2022-12-07T15:23:49;4.80;99.90
22680;DHT22;11507;44.858;10.374;2022-12-07T15:26:15;4.80;99.90
22680;DHT22;11507;44.858;10.374;2022-12-07T15:28:42;4.80;99.90
22680;DHT22;11507;44.858;10.374;2022-12-07T15:31:15;4.70;99.90
22680;DHT22;11507;44.858;10.374;2022-12-07T15:33:44;4.70;99.90
22680;DHT22;11507;44.858;10.374;2022-12-07T15:36:25;4.60;99.90
22680;DHT22;11507;44.858;10.374;2022-12-07T15:38:53;4.50;99.90
22680;DHT22;11507;44.858;10.374;2022-12-07T15:41:21;4.60;99.90
22680;DHT22;11507;44.858;10.374;2022-12-07T15:43:48;4.60;99.90
22680;DHT22;11507;44.858;10.374;2022-12-07T15:46:38;4.50;99.90
22680;DHT22;11507;44.858;10.374;2022-12-07T15:49:12;4.50;99.90
22680;DHT22;11507;44.858;10.374;2022-12-07T15:51:42;4.50;99.90
22680;DHT22;11507;44.858;10.374;2022-12-07T15:54:26;4.50;99.90
22680;DHT22;11507;44.858;10.374;2022-12-07T15:56:54;4.50;99.90
22680;DHT22;11507;44.858;10.374;2022-12-07T15:59:20;4.50;99.90
22680;DHT22;11507;44.858;10.374;2022-12-07T16:01:46;4.50;99.90
22680;DHT22;11507;44.858;10.374;2022-12-07T16:04:12;4.50;99.90
22680;DHT22;11507;44.858;10.374;2022-12-07T16:06:38;4.50;99.90
22680;DHT22;11507;44.858;10.374;2022-12-07T16:09:05;4.50;99.90
22680;DHT22;11507;44.858;10.374;2022-12-07T16:11:32;4.60;99.90
22680;DHT22;11507;44.858;10.374;2022-12-07T16:13:58;4.50;99.90
22680;DHT22;11507;44.858;10.374;2022-12-07T16:16:23;4.50;99.90
22680;DHT22;11507;44.858;10.374;2022-12-07T16:18:50;4.40;99.90
22680;DHT22;11507;44.858;10.374;2022-12-07T16:21:17;4.30;99.90
22680;DHT22;11507;44.858;10.374;2022-12-07T16:23:44;4.20;99.90
22680;DHT22;11507;44.858;10.374;2022-12-07T16:26:15;4.20;99.90
22680;DHT22;11507;44.858;10.374;2022-12-07T16:28:42;4.20;99.90
22680;DHT22;11507;44.858;10.374;2022-12-07T16:31:17;4.20;99.90
22680;DHT22;11507;44.858;10.374;2022-12-07T16:33:44;4.20;99.90
22680;DHT22;11507;44.858;10.374;2022-12-07T16:36:11;4.20;99.90
22680;DHT22;11507;44.858;10.374;2022-12-07T16:38:39;4.20;99.90
22680;DHT22;11507;44.858;10.374;2022-12-07T16:41:06;4.20;99.90
22680;DHT22;11507;44.858;10.374;2022-12-07T16:43:32;4.20;99.90
22680;DHT22;11507;44.858;10.374;2022-12-07T16:45:59;4.20;99.90
22680;DHT22;11507;44.858;10.374;2022-12-07T16:48:25;4.20;99.90
22680;DHT22;11507;44.858;10.374;2022-12-07T16:50:51;4.20;99.90
22680;DHT22;11507;44.858;10.374;2022-12-07T16:53:20;4.20;99.90
22680;DHT22;11507;44.858;10.374;2022-12-07T16:55:47;4.20;99.90
22680;DHT22;11507;44.858;10.374;2022-12-07T16:58:14;4.20;99.90
22680;DHT22;11507;44.858;10.374;2022-12-07T17:00:43;4.20;99.90
22680;DHT22;11507;44.858;10.374;2022-12-07T17:03:10;4.20;99.90
22680;DHT22;11507;44.858;10.374;2022-12-07T17:05:40;4.20;99.90
22680;DHT22;11507;44.858;10.374;2022-12-07T17:08:07;4.20;99.90
22680;DHT22;11507;44.858;10.374;2022-12-07T17:10:36;4.20;99.90
22680;DHT22;11507;44.858;10.374;2022-12-07T17:13:04;4.20;99.90
22680;DHT22;11507;44.858;10.374;2022-12-07T17:16:04;4.20;99.90
22680;DHT22;11507;44.858;10.374;2022-12-07T17:18:33;4.20;99.90
22680;DHT22;11507;44.858;10.374;2022-12-07T17:21:07;4.30;99.90
22680;DHT22;11507;44.858;10.374;2022-12-07T17:23:35;4.20;99.90
22680;DHT22;11507;44.858;10.374;2022-12-07T17:26:18;4.20;99.90
22680;DHT22;11507;44.858;10.374;2022-12-07T17:28:44;4.10;99.90
22680;DHT22;11507;44.858;10.374;2022-12-07T17:31:12;4.10;99.90
22680;DHT22;11507;44.858;10.374;2022-12-07T17:33:38;4.20;99.90
22680;DHT22;11507;44.858;10.374;2022-12-07T17:36:11;4.10;99.90
22680;DHT22;11507;44.858;10.374;2022-12-07T17:38:37;4.20;99.90
22680;DHT22;11507;44.858;10.374;2022-12-07T17:41:30;4.20;99.90
22680;DHT22;11507;44.858;10.374;2022-12-07T17:44:17;4.10;99.90
22680;DHT22;11507;44.858;10.374;2022-12-07T17:46:48;4.10;99.90
22680;DHT22;11507;44.858;10.374;2022-12-07T17:49:15;4.10;99.90
22680;DHT22;11507;44.858;10.374;2022-12-07T17:51:41;4.10;99.90
22680;DHT22;11507;44.858;10.374;2022-12-07T17:54:26;4.10;99.90
22680;DHT22;11507;44.858;10.374;2022-12-07T17:56:51;4.10;99.90
22680;DHT22;11507;44.858;10.374;2022-12-07T17:59:18;4.10;99.90
22680;DHT22;11507;44.858;10.374;2022-12-07T18:01:44;4.10;99.90
22680;DHT22;11507;44.858;10.374;2022-12-07T18:04:10;4.20;99.90
22680;DHT22;11507;44.858;10.374;2022-12-07T18:06:38;4.20;99.90
22680;DHT22;11507;44.858;10.374;2022-12-07T18:09:05;4.20;99.90
22680;DHT22;11507;44.858;10.374;2022-12-07T18:11:32;4.20;99.90
22680;DHT22;11507;44.858;10.374;2022-12-07T18:13:59;4.20;99.90
22680;DHT22;11507;44.858;10.374;2022-12-07T18:16:25;4.20;99.90